sensor_id;sensor_type;location;lat;lon;timestamp;pressure;altitude;pressure_sealevel;temperature;humidity
37852;BME280;23691;52.486;4.650;2022-07-24T00:02:05;101921.94;;;21.23;57.90
37852;BME280;23691;52.486;4.650;2022-07-24T00:04:31;101922.34;;;21.20;58.02
37852;BME280;23691;52.486;4.650;2022-07-24T00:06:56;101917.94;;;21.19;58.00
37852;BME280;23691;52.486;4.650;2022-07-24T00:09:21;101919.84;;;21.18;57.96
37852;BME280;23691;52.486;4.650;2022-07-24T00:11:48;101918.16;;;21.17;57.94
37852;BME280;23691;52.486;4.650;2022-07-24T00:14:14;101920.44;;;21.14;58.19
37852;BME280;23691;52.486;4.650;2022-07-24T00:16:39;101920.47;;;21.07;58.47
37852;BME280;23691;52.486;4.650;2022-07-24T00:19:05;101919.41;;;21.08;58.42
37852;BME280;23691;52.486;4.650;2022-07-24T00:21:30;101924.44;;;21.11;58.62
37852;BME280;23691;52.486;4.650;2022-07-24T00:23:55;101922.56;;;21.12;58.28
37852;BME280;23691;52.486;4.650;2022-07-24T00:26:21;101919.19;;;21.03;58.93
37852;BME280;23691;52.486;4.650;2022-07-24T00:28:46;101922.34;;;21.07;58.87
37852;BME280;23691;52.486;4.650;2022-07-24T00:31:14;101914.59;;;21.10;58.81
37852;BME280;23691;52.486;4.650;2022-07-24T00:33:39;101921.06;;;21.09;58.67
37852;BME280;23691;52.486;4.650;2022-07-24T00:36:05;101920.25;;;21.09;59.18
37852;BME280;23691;52.486;4.650;2022-07-24T00:38:30;101912.50;;;21.06;58.72
37852;BME280;23691;52.486;4.650;2022-07-24T00:40:55;101924.44;;;21.05;58.97
37852;BME280;23691;52.486;4.650;2022-07-24T00:43:21;101923.38;;;20.99;58.95
37852;BME280;23691;52.486;4.650;2022-07-24T00:45:46;101917.72;;;20.94;59.00
37852;BME280;23691;52.486;4.650;2022-07-24T00:48:12;101912.91;;;20.96;59.42
37852;BME280;23691;52.486;4.650;2022-07-24T00:50:37;101913.56;;;20.98;59.05
37852;BME280;23691;52.486;4.650;2022-07-24T00:53:04;101916.47;;;20.96;59.33
37852;BME280;23691;52.486;4.650;2022-07-24T00:55:29;101919.19;;;20.96;59.05
37852;BME280;23691;52.486;4.650;2022-07-24T00:57:55;101907.25;;;20.91;59.25
37852;BME280;23691;52.486;4.650;2022-07-24T01:00:20;101903.28;;;20.87;59.15
37852;BME280;23691;52.486;4.650;2022-07-24T01:02:47;101903.06;;;20.82;59.59
37852;BME280;23691;52.486;4.650;2022-07-24T01:05:13;101906.22;;;20.85;59.36
37852;BME280;23691;52.486;4.650;2022-07-24T01:07:38;101907.88;;;20.86;59.36
37852;BME280;23691;52.486;4.650;2022-07-24T01:10:05;101904.31;;;20.86;59.17
37852;BME280;23691;52.486;4.650;2022-07-24T01:12:32;101899.09;;;20.84;59.40
37852;BME280;23691;52.486;4.650;2022-07-24T01:14:58;101901.59;;;20.79;59.60
37852;BME280;23691;52.486;4.650;2022-07-24T01:17:24;101890.72;;;20.79;59.65
37852;BME280;23691;52.486;4.650;2022-07-24T01:19:53;101897.63;;;20.75;59.72
37852;BME280;23691;52.486;4.650;2022-07-24T01:22:19;101895.94;;;20.74;60.03
37852;BME280;23691;52.486;4.650;2022-07-24T01:24:44;101896.75;;;20.74;59.97
37852;BME280;23691;52.486;4.650;2022-07-24T01:27:10;101894.03;;;20.74;59.97
37852;BME280;23691;52.486;4.650;2022-07-24T01:29:35;101891.31;;;20.74;59.99
37852;BME280;23691;52.486;4.650;2022-07-24T01:32:01;101894.69;;;20.76;60.02
37852;BME280;23691;52.486;4.650;2022-07-24T01:34:26;101894.50;;;20.78;60.05
37852;BME280;23691;52.486;4.650;2022-07-24T01:36:52;101884.84;;;20.82;59.96
37852;BME280;23691;52.486;4.650;2022-07-24T01:39:17;101886.09;;;20.79;60.05
37852;BME280;23691;52.486;4.650;2022-07-24T01:41:43;101890.94;;;20.77;60.26
37852;BME280;23691;52.486;4.650;2022-07-24T01:44:08;101892.19;;;20.75;60.13
37852;BME280;23691;52.486;4.650;2022-07-24T01:46:33;101887.34;;;20.77;60.28
37852;BME280;23691;52.486;4.650;2022-07-24T01:48:59;101888.81;;;20.79;60.36
37852;BME280;23691;52.486;4.650;2022-07-24T01:51:24;101880.88;;;20.78;60.67
37852;BME280;23691;52.486;4.650;2022-07-24T01:53:50;101881.91;;;20.77;60.36
37852;BME280;23691;52.486;4.650;2022-07-24T01:56:15;101872.72;;;20.78;60.85
37852;BME280;23691;52.486;4.650;2022-07-24T01:58:40;101876.69;;;20.75;61.28
37852;BME280;23691;52.486;4.650;2022-07-24T02:01:06;101876.06;;;20.73;61.30
37852;BME280;23691;52.486;4.650;2022-07-24T02:03:31;101860.38;;;20.75;61.50
37852;BME280;23691;52.486;4.650;2022-07-24T02:05:57;101863.09;;;20.75;61.48
37852;BME280;23691;52.486;4.650;2022-07-24T02:08:22;101861.84;;;20.78;61.53
37852;BME280;23691;52.486;4.650;2022-07-24T02:10:48;101860.38;;;20.82;61.70
37852;BME280;23691;52.486;4.650;2022-07-24T02:13:13;101865.41;;;20.85;61.38
37852;BME280;23691;52.486;4.650;2022-07-24T02:15:38;101851.19;;;20.83;61.83
37852;BME280;23691;52.486;4.650;2022-07-24T02:18:04;101858.31;;;20.77;62.23
37852;BME280;23691;52.486;4.650;2022-07-24T02:20:30;101850.34;;;20.76;62.34
37852;BME280;23691;52.486;4.650;2022-07-24T02:22:55;101846.56;;;20.70;62.83
37852;BME280;23691;52.486;4.650;2022-07-24T02:25:21;101844.28;;;20.74;62.86
37852;BME280;23691;52.486;4.650;2022-07-24T02:27:46;101843.00;;;20.70;63.05
37852;BME280;23691;52.486;4.650;2022-07-24T02:30:15;101841.97;;;20.71;63.32
37852;BME280;23691;52.486;4.650;2022-07-24T02:32:40;101836.34;;;20.72;63.18
37852;BME280;23691;52.486;4.650;2022-07-24T02:35:06;101838.00;;;20.73;63.24
37852;BME280;23691;52.486;4.650;2022-07-24T02:37:35;101828.56;;;20.69;63.31
37852;BME280;23691;52.486;4.650;2022-07-24T02:40:01;101832.34;;;20.68;63.67
37852;BME280;23691;52.486;4.650;2022-07-24T02:42:26;101827.53;;;20.64;63.64
37852;BME280;23691;52.486;4.650;2022-07-24T02:44:51;101823.75;;;20.65;63.66
37852;BME280;23691;52.486;4.650;2022-07-24T02:47:17;101816.66;;;20.64;63.87
37852;BME280;23691;52.486;4.650;2022-07-24T02:49:42;101824.78;;;20.57;64.21
37852;BME280;23691;52.486;4.650;2022-07-24T02:52:07;101831.50;;;20.61;64.16
37852;BME280;23691;52.486;4.650;2022-07-24T02:54:33;101828.16;;;20.66;63.97
37852;BME280;23691;52.486;4.650;2022-07-24T02:56:58;101825.44;;;20.66;63.65
37852;BME280;23691;52.486;4.650;2022-07-24T02:59:23;101820.63;;;20.61;64.22
37852;BME280;23691;52.486;4.650;2022-07-24T03:01:49;101816.03;;;20.62;64.08
37852;BME280;23691;52.486;4.650;2022-07-24T03:04:14;101822.72;;;20.66;63.83
37852;BME280;23691;52.486;4.650;2022-07-24T03:06:40;101814.56;;;20.66;63.71
37852;BME280;23691;52.486;4.650;2022-07-24T03:09:05;101813.75;;;20.65;63.69
37852;BME280;23691;52.486;4.650;2022-07-24T03:11:31;101810.81;;;20.60;63.93
37852;BME280;23691;52.486;4.650;2022-07-24T03:13:56;101807.84;;;20.55;64.29
37852;BME280;23691;52.486;4.650;2022-07-24T03:16:21;101809.28;;;20.51;64.13
37852;BME280;23691;52.486;4.650;2022-07-24T03:18:47;101811.78;;;20.52;64.05
37852;BME280;23691;52.486;4.650;2022-07-24T03:21:14;101800.09;;;20.52;64.04
37852;BME280;23691;52.486;4.650;2022-07-24T03:23:40;101806.34;;;20.52;63.97
37852;BME280;23691;52.486;4.650;2022-07-24T03:26:06;101800.31;;;20.50;63.81
37852;BME280;23691;52.486;4.650;2022-07-24T03:28:32;101813.47;;;20.47;64.08
37852;BME280;23691;52.486;4.650;2022-07-24T03:30:58;101803.44;;;20.41;64.27
37852;BME280;23691;52.486;4.650;2022-07-24T03:33:23;101802.16;;;20.36;64.44
37852;BME280;23691;52.486;4.650;2022-07-24T03:35:49;101803.81;;;20.37;64.29
37852;BME280;23691;52.486;4.650;2022-07-24T03:38:14;101799.25;;;20.38;64.34
37852;BME280;23691;52.486;4.650;2022-07-24T03:40:39;101797.97;;;20.34;64.40
37852;BME280;23691;52.486;4.650;2022-07-24T03:43:05;101793.56;;;20.33;64.46
37852;BME280;23691;52.486;4.650;2022-07-24T03:45:30;101791.72;;;20.33;64.67
37852;BME280;23691;52.486;4.650;2022-07-24T03:47:56;101800.50;;;20.35;64.50
37852;BME280;23691;52.486;4.650;2022-07-24T03:50:21;101803.19;;;20.29;64.72
37852;BME280;23691;52.486;4.650;2022-07-24T03:52:46;101805.06;;;20.22;64.94
37852;BME280;23691;52.486;4.650;2022-07-24T03:55:12;101800.88;;;20.19;64.96
37852;BME280;23691;52.486;4.650;2022-07-24T03:57:38;101798.97;;;20.20;65.21
37852;BME280;23691;52.486;4.650;2022-07-24T04:00:05;101806.09;;;20.21;65.11
37852;BME280;23691;52.486;4.650;2022-07-24T04:02:30;101805.84;;;20.15;65.08
37852;BME280;23691;52.486;4.650;2022-07-24T04:04:56;101807.31;;;20.11;65.16
37852;BME280;23691;52.486;4.650;2022-07-24T04:07:21;101805.22;;;20.07;65.49
37852;BME280;23691;52.486;4.650;2022-07-24T04:09:46;101797.06;;;20.07;65.22
37852;BME280;23691;52.486;4.650;2022-07-24T04:12:12;101794.38;;;20.13;65.06
37852;BME280;23691;52.486;4.650;2022-07-24T04:14:37;101792.91;;;20.11;65.24
37852;BME280;23691;52.486;4.650;2022-07-24T04:17:03;101787.47;;;20.11;65.22
37852;BME280;23691;52.486;4.650;2022-07-24T04:19:28;101800.66;;;20.14;64.89
37852;BME280;23691;52.486;4.650;2022-07-24T04:21:53;101799.59;;;20.15;65.12
37852;BME280;23691;52.486;4.650;2022-07-24T04:24:19;101802.31;;;20.15;64.86
37852;BME280;23691;52.486;4.650;2022-07-24T04:26:44;101798.56;;;20.16;64.58
37852;BME280;23691;52.486;4.650;2022-07-24T04:29:10;101790.41;;;20.16;64.74
37852;BME280;23691;52.486;4.650;2022-07-24T04:31:35;101797.94;;;20.14;65.10
37852;BME280;23691;52.486;4.650;2022-07-24T04:34:01;101799.81;;;20.13;64.86
37852;BME280;23691;52.486;4.650;2022-07-24T04:36:26;101798.56;;;20.16;65.15
37852;BME280;23691;52.486;4.650;2022-07-24T04:38:51;101797.28;;;20.12;64.97
37852;BME280;23691;52.486;4.650;2022-07-24T04:41:17;101790.59;;;20.08;65.35
37852;BME280;23691;52.486;4.650;2022-07-24T04:43:43;101797.47;;;20.10;65.19
37852;BME280;23691;52.486;4.650;2022-07-24T04:46:08;101793.75;;;20.11;65.07
37852;BME280;23691;52.486;4.650;2022-07-24T04:48:34;101802.53;;;20.13;65.05
37852;BME280;23691;52.486;4.650;2022-07-24T04:50:59;101802.31;;;20.15;65.05
37852;BME280;23691;52.486;4.650;2022-07-24T04:53:24;101803.78;;;20.17;65.08
37852;BME280;23691;52.486;4.650;2022-07-24T04:55:50;101805.47;;;20.19;65.33
37852;BME280;23691;52.486;4.650;2022-07-24T04:58:15;101810.69;;;20.20;65.44
37852;BME280;23691;52.486;4.650;2022-07-24T05:00:41;101814.44;;;20.19;65.50
37852;BME280;23691;52.486;4.650;2022-07-24T05:03:06;101809.03;;;20.26;65.51
37852;BME280;23691;52.486;4.650;2022-07-24T05:05:31;101809.47;;;20.36;65.48
37852;BME280;23691;52.486;4.650;2022-07-24T05:07:57;101818.03;;;20.40;65.48
37852;BME280;23691;52.486;4.650;2022-07-24T05:10:22;101811.34;;;20.42;65.48
37852;BME280;23691;52.486;4.650;2022-07-24T05:12:48;101799.47;;;20.43;65.68
37852;BME280;23691;52.486;4.650;2022-07-24T05:15:13;101811.38;;;20.49;65.48
37852;BME280;23691;52.486;4.650;2022-07-24T05:17:41;101804.09;;;20.56;65.43
37852;BME280;23691;52.486;4.650;2022-07-24T05:20:07;101797.44;;;20.65;65.23
37852;BME280;23691;52.486;4.650;2022-07-24T05:22:33;101805.78;;;20.77;64.93
37852;BME280;23691;52.486;4.650;2022-07-24T05:24:58;101793.63;;;20.79;64.95
37852;BME280;23691;52.486;4.650;2022-07-24T05:27:24;101789.47;;;20.84;64.72
37852;BME280;23691;52.486;4.650;2022-07-24T05:29:49;101802.63;;;20.87;64.55
37852;BME280;23691;52.486;4.650;2022-07-24T05:32:14;101804.31;;;20.94;64.55
37852;BME280;23691;52.486;4.650;2022-07-24T05:34:40;101800.75;;;21.07;64.14
37852;BME280;23691;52.486;4.650;2022-07-24T05:37:06;101803.03;;;21.23;63.86
37852;BME280;23691;52.486;4.650;2022-07-24T05:39:31;101811.59;;;21.40;63.52
37852;BME280;23691;52.486;4.650;2022-07-24T05:41:57;101805.06;;;21.61;62.87
37852;BME280;23691;52.486;4.650;2022-07-24T05:44:22;101810.81;;;21.92;61.88
37852;BME280;23691;52.486;4.650;2022-07-24T05:46:48;101808.59;;;22.14;61.65
37852;BME280;23691;52.486;4.650;2022-07-24T05:49:13;101800.16;;;22.28;61.33
37852;BME280;23691;52.486;4.650;2022-07-24T05:51:38;101799.69;;;22.38;60.84
37852;BME280;23691;52.486;4.650;2022-07-24T05:54:04;101800.06;;;22.42;60.90
37852;BME280;23691;52.486;4.650;2022-07-24T05:56:30;101796.28;;;22.43;60.44
37852;BME280;23691;52.486;4.650;2022-07-24T05:58:56;101792.06;;;22.47;60.51
37852;BME280;23691;52.486;4.650;2022-07-24T06:01:21;101786.38;;;22.48;60.46
37852;BME280;23691;52.486;4.650;2022-07-24T06:03:46;101789.78;;;22.44;60.39
37852;BME280;23691;52.486;4.650;2022-07-24T06:06:12;101793.44;;;22.31;60.86
37852;BME280;23691;52.486;4.650;2022-07-24T06:08:37;101796.81;;;22.26;60.58
37852;BME280;23691;52.486;4.650;2022-07-24T06:11:03;101790.34;;;22.21;60.65
37852;BME280;23691;52.486;4.650;2022-07-24T06:13:28;101795.38;;;22.17;60.79
37852;BME280;23691;52.486;4.650;2022-07-24T06:15:53;101785.94;;;22.20;60.78
37852;BME280;23691;52.486;4.650;2022-07-24T06:18:19;101791.97;;;22.28;60.69
37852;BME280;23691;52.486;4.650;2022-07-24T06:20:44;101786.66;;;22.40;60.62
37852;BME280;23691;52.486;4.650;2022-07-24T06:23:09;101795.38;;;22.56;59.95
37852;BME280;23691;52.486;4.650;2022-07-24T06:25:35;101795.25;;;22.69;60.11
37852;BME280;23691;52.486;4.650;2022-07-24T06:28:00;101791.84;;;22.73;59.57
37852;BME280;23691;52.486;4.650;2022-07-24T06:30:27;101792.09;;;22.72;59.16
37852;BME280;23691;52.486;4.650;2022-07-24T06:32:54;101795.03;;;22.70;59.11
37852;BME280;23691;52.486;4.650;2022-07-24T06:35:20;101796.69;;;22.71;59.01
37852;BME280;23691;52.486;4.650;2022-07-24T06:37:46;101800.28;;;22.72;59.24
37852;BME280;23691;52.486;4.650;2022-07-24T06:40:11;101804.03;;;22.71;58.83
37852;BME280;23691;52.486;4.650;2022-07-24T06:42:37;101813.31;;;22.70;58.92
37852;BME280;23691;52.486;4.650;2022-07-24T06:45:03;101801.66;;;22.81;59.01
37852;BME280;23691;52.486;4.650;2022-07-24T06:47:29;101802.22;;;22.90;58.82
37852;BME280;23691;52.486;4.650;2022-07-24T06:49:55;101791.75;;;23.12;58.52
37852;BME280;23691;52.486;4.650;2022-07-24T06:52:21;101795.66;;;23.41;57.97
37852;BME280;23691;52.486;4.650;2022-07-24T06:54:47;101795.91;;;23.76;57.17
37852;BME280;23691;52.486;4.650;2022-07-24T06:57:12;101802.66;;;23.92;57.13
37852;BME280;23691;52.486;4.650;2022-07-24T06:59:38;101799.44;;;23.95;56.53
37852;BME280;23691;52.486;4.650;2022-07-24T07:02:03;101793.31;;;23.82;56.53
37852;BME280;23691;52.486;4.650;2022-07-24T07:04:29;101791.78;;;23.67;57.42
37852;BME280;23691;52.486;4.650;2022-07-24T07:07:03;101787.91;;;23.56;57.47
37852;BME280;23691;52.486;4.650;2022-07-24T07:09:29;101786.69;;;23.52;57.47
37852;BME280;23691;52.486;4.650;2022-07-24T07:11:55;101797.94;;;23.81;57.32
37852;BME280;23691;52.486;4.650;2022-07-24T07:14:20;101797.22;;;24.04;56.71
37852;BME280;23691;52.486;4.650;2022-07-24T07:16:46;101790.09;;;24.03;56.52
37852;BME280;23691;52.486;4.650;2022-07-24T07:19:11;101802.69;;;24.04;56.60
37852;BME280;23691;52.486;4.650;2022-07-24T07:21:37;101797.53;;;23.96;56.74
37852;BME280;23691;52.486;4.650;2022-07-24T07:24:03;101800.28;;;23.96;56.90
37852;BME280;23691;52.486;4.650;2022-07-24T07:26:29;101796.59;;;24.02;56.74
37852;BME280;23691;52.486;4.650;2022-07-24T07:28:54;101806.00;;;24.06;56.67
37852;BME280;23691;52.486;4.650;2022-07-24T07:31:20;101805.09;;;24.12;56.38
37852;BME280;23691;52.486;4.650;2022-07-24T07:33:46;101792.00;;;24.14;56.02
37852;BME280;23691;52.486;4.650;2022-07-24T07:36:12;101802.88;;;24.21;56.20
37852;BME280;23691;52.486;4.650;2022-07-24T07:38:37;101787.59;;;24.32;55.73
37852;BME280;23691;52.486;4.650;2022-07-24T07:41:04;101781.50;;;24.41;55.31
37852;BME280;23691;52.486;4.650;2022-07-24T07:43:30;101781.56;;;24.53;55.03
37852;BME280;23691;52.486;4.650;2022-07-24T07:45:55;101786.47;;;24.63;54.61
37852;BME280;23691;52.486;4.650;2022-07-24T07:48:20;101776.97;;;24.77;53.78
37852;BME280;23691;52.486;4.650;2022-07-24T07:50:46;101781.53;;;24.83;53.27
37852;BME280;23691;52.486;4.650;2022-07-24T07:53:12;101782.59;;;24.94;53.15
37852;BME280;23691;52.486;4.650;2022-07-24T07:55:37;101781.50;;;24.95;52.34
37852;BME280;23691;52.486;4.650;2022-07-24T07:58:03;101785.06;;;25.07;52.34
37852;BME280;23691;52.486;4.650;2022-07-24T08:00:32;101776.50;;;25.16;52.37
37852;BME280;23691;52.486;4.650;2022-07-24T08:02:58;101774.53;;;25.23;51.58
37852;BME280;23691;52.486;4.650;2022-07-24T08:05:23;101776.88;;;25.19;51.04
37852;BME280;23691;52.486;4.650;2022-07-24T08:07:49;101777.44;;;25.10;51.03
37852;BME280;23691;52.486;4.650;2022-07-24T08:10:14;101785.19;;;25.13;51.08
37852;BME280;23691;52.486;4.650;2022-07-24T08:12:39;101797.00;;;25.25;50.98
37852;BME280;23691;52.486;4.650;2022-07-24T08:15:06;101778.53;;;25.44;50.99
37852;BME280;23691;52.486;4.650;2022-07-24T08:17:31;101787.53;;;25.56;50.46
37852;BME280;23691;52.486;4.650;2022-07-24T08:19:57;101788.56;;;25.67;50.24
37852;BME280;23691;52.486;4.650;2022-07-24T08:22:22;101789.88;;;25.76;50.19
37852;BME280;23691;52.486;4.650;2022-07-24T08:24:47;101781.75;;;25.81;49.44
37852;BME280;23691;52.486;4.650;2022-07-24T08:27:13;101777.97;;;25.70;49.84
37852;BME280;23691;52.486;4.650;2022-07-24T08:29:38;101781.16;;;25.91;49.26
37852;BME280;23691;52.486;4.650;2022-07-24T08:32:04;101773.56;;;26.10;48.77
37852;BME280;23691;52.486;4.650;2022-07-24T08:34:29;101778.00;;;26.45;48.34
37852;BME280;23691;52.486;4.650;2022-07-24T08:36:54;101782.72;;;26.78;47.02
37852;BME280;23691;52.486;4.650;2022-07-24T08:39:20;101780.19;;;27.10;46.50
37852;BME280;23691;52.486;4.650;2022-07-24T08:41:45;101773.09;;;27.14;46.26
37852;BME280;23691;52.486;4.650;2022-07-24T08:44:11;101779.44;;;27.15;45.63
37852;BME280;23691;52.486;4.650;2022-07-24T08:46:38;101773.22;;;27.03;45.44
37852;BME280;23691;52.486;4.650;2022-07-24T08:49:07;101773.53;;;26.89;45.49
37852;BME280;23691;52.486;4.650;2022-07-24T08:51:37;101780.38;;;26.70;45.34
37852;BME280;23691;52.486;4.650;2022-07-24T08:54:02;101768.56;;;26.69;45.72
37852;BME280;23691;52.486;4.650;2022-07-24T08:56:28;101778.97;;;26.84;45.21
37852;BME280;23691;52.486;4.650;2022-07-24T08:58:54;101778.38;;;26.82;45.02
37852;BME280;23691;52.486;4.650;2022-07-24T09:01:20;101772.22;;;26.92;44.69
37852;BME280;23691;52.486;4.650;2022-07-24T09:03:47;101772.47;;;26.90;44.49
37852;BME280;23691;52.486;4.650;2022-07-24T09:06:14;101773.53;;;26.89;44.37
37852;BME280;23691;52.486;4.650;2022-07-24T09:08:43;101763.06;;;26.86;44.46
37852;BME280;23691;52.486;4.650;2022-07-24T09:11:21;101767.75;;;26.86;44.28
37852;BME280;23691;52.486;4.650;2022-07-24T09:13:51;101769.47;;;26.92;44.46
37852;BME280;23691;52.486;4.650;2022-07-24T09:16:35;101757.56;;;27.03;44.69
37852;BME280;23691;52.486;4.650;2022-07-24T09:21:32;101765.53;;;27.22;44.21
37852;BME280;23691;52.486;4.650;2022-07-24T09:23:58;101762.44;;;27.18;44.04
37852;BME280;23691;52.486;4.650;2022-07-24T09:29:13;101768.75;;;27.57;43.52
37852;BME280;23691;52.486;4.650;2022-07-24T09:31:58;101761.38;;;27.85;43.28
37852;BME280;23691;52.486;4.650;2022-07-24T09:34:25;101764.34;;;28.05;43.26
37852;BME280;23691;52.486;4.650;2022-07-24T09:36:59;101759.56;;;27.96;42.66
37852;BME280;23691;52.486;4.650;2022-07-24T09:39:25;101762.53;;;28.16;41.78
37852;BME280;23691;52.486;4.650;2022-07-24T09:41:54;101765.34;;;28.21;41.54
37852;BME280;23691;52.486;4.650;2022-07-24T09:44:20;101764.03;;;28.29;41.64
37852;BME280;23691;52.486;4.650;2022-07-24T09:46:57;101774.47;;;28.27;41.21
37852;BME280;23691;52.486;4.650;2022-07-24T09:49:24;101756.34;;;28.31;41.08
37852;BME280;23691;52.486;4.650;2022-07-24T09:52:11;101766.09;;;28.44;40.68
37852;BME280;23691;52.486;4.650;2022-07-24T09:54:50;101767.41;;;28.36;41.40
37852;BME280;23691;52.486;4.650;2022-07-24T09:57:27;101765.06;;;28.23;41.30
37852;BME280;23691;52.486;4.650;2022-07-24T09:59:56;101765.81;;;28.13;41.21
37852;BME280;23691;52.486;4.650;2022-07-24T10:02:24;101757.19;;;28.04;41.62
37852;BME280;23691;52.486;4.650;2022-07-24T10:04:50;101767.44;;;28.09;42.05
37852;BME280;23691;52.486;4.650;2022-07-24T10:07:19;101765.75;;;28.08;41.97
37852;BME280;23691;52.486;4.650;2022-07-24T10:09:47;101768.81;;;28.12;42.14
37852;BME280;23691;52.486;4.650;2022-07-24T10:12:16;101767.72;;;28.13;42.08
37852;BME280;23691;52.486;4.650;2022-07-24T10:14:43;101770.56;;;28.23;42.02
37852;BME280;23691;52.486;4.650;2022-07-24T10:17:11;101759.94;;;28.32;41.98
37852;BME280;23691;52.486;4.650;2022-07-24T10:24:58;101757.31;;;28.47;41.62
37852;BME280;23691;52.486;4.650;2022-07-24T10:27:30;101751.00;;;28.46;41.64
37852;BME280;23691;52.486;4.650;2022-07-24T10:30:04;101753.22;;;28.50;41.60
37852;BME280;23691;52.486;4.650;2022-07-24T10:32:32;101756.38;;;28.63;41.39
37852;BME280;23691;52.486;4.650;2022-07-24T10:35:06;101758.00;;;28.64;41.33
37852;BME280;23691;52.486;4.650;2022-07-24T10:40:36;101748.91;;;28.59;41.39
37852;BME280;23691;52.486;4.650;2022-07-24T10:45:43;101751.50;;;28.76;41.19
37852;BME280;23691;52.486;4.650;2022-07-24T10:48:29;101758.38;;;28.73;41.10
37852;BME280;23691;52.486;4.650;2022-07-24T10:51:01;101751.72;;;28.69;41.19
37852;BME280;23691;52.486;4.650;2022-07-24T11:01:42;101757.34;;;28.89;40.51
37852;BME280;23691;52.486;4.650;2022-07-24T11:09:13;101739.66;;;29.18;40.73
37852;BME280;23691;52.486;4.650;2022-07-24T11:12:05;101750.97;;;29.26;40.39
37852;BME280;23691;52.486;4.650;2022-07-24T11:17:43;101753.72;;;29.21;40.32
37852;BME280;23691;52.486;4.650;2022-07-24T11:20:19;101740.25;;;29.25;40.21
37852;BME280;23691;52.486;4.650;2022-07-24T11:22:52;101744.97;;;29.29;39.89
37852;BME280;23691;52.486;4.650;2022-07-24T11:25:26;101744.69;;;29.36;40.20
37852;BME280;23691;52.486;4.650;2022-07-24T11:27:57;101746.63;;;29.41;40.24
37852;BME280;23691;52.486;4.650;2022-07-24T11:30:28;101745.28;;;29.43;39.31
37852;BME280;23691;52.486;4.650;2022-07-24T11:32:55;101748.00;;;29.38;39.57
37852;BME280;23691;52.486;4.650;2022-07-24T11:35:33;101740.63;;;29.44;39.97
37852;BME280;23691;52.486;4.650;2022-07-24T11:37:59;101741.44;;;29.44;39.54
37852;BME280;23691;52.486;4.650;2022-07-24T11:40:26;101729.84;;;29.37;39.73
37852;BME280;23691;52.486;4.650;2022-07-24T11:42:58;101723.53;;;29.47;39.71
37852;BME280;23691;52.486;4.650;2022-07-24T11:45:24;101722.81;;;29.72;39.86
37852;BME280;23691;52.486;4.650;2022-07-24T11:47:50;101722.00;;;29.82;39.37
37852;BME280;23691;52.486;4.650;2022-07-24T11:50:19;101726.97;;;29.90;38.85
37852;BME280;23691;52.486;4.650;2022-07-24T11:52:45;101716.78;;;30.06;39.31
37852;BME280;23691;52.486;4.650;2022-07-24T11:55:14;101711.28;;;30.16;38.58
37852;BME280;23691;52.486;4.650;2022-07-24T11:57:41;101702.72;;;30.23;38.50
37852;BME280;23691;52.486;4.650;2022-07-24T12:00:10;101693.91;;;30.41;38.30
37852;BME280;23691;52.486;4.650;2022-07-24T12:02:42;101688.38;;;30.51;38.05
37852;BME280;23691;52.486;4.650;2022-07-24T12:05:07;101695.81;;;30.56;37.60
37852;BME280;23691;52.486;4.650;2022-07-24T12:07:33;101691.94;;;30.67;37.37
37852;BME280;23691;52.486;4.650;2022-07-24T12:10:00;101688.03;;;30.78;36.88
37852;BME280;23691;52.486;4.650;2022-07-24T12:12:31;101685.00;;;30.90;36.45
37852;BME280;23691;52.486;4.650;2022-07-24T12:15:07;101678.34;;;30.96;36.30
37852;BME280;23691;52.486;4.650;2022-07-24T12:17:35;101689.34;;;31.12;36.16
37852;BME280;23691;52.486;4.650;2022-07-24T12:20:20;101681.06;;;31.07;36.10
37852;BME280;23691;52.486;4.650;2022-07-24T12:22:46;101682.72;;;31.08;36.11
37852;BME280;23691;52.486;4.650;2022-07-24T12:25:12;101674.69;;;31.16;36.20
37852;BME280;23691;52.486;4.650;2022-07-24T12:27:42;101673.81;;;31.26;36.32
37852;BME280;23691;52.486;4.650;2022-07-24T12:30:27;101672.38;;;31.39;35.54
37852;BME280;23691;52.486;4.650;2022-07-24T12:32:56;101673.41;;;31.53;36.16
37852;BME280;23691;52.486;4.650;2022-07-24T12:35:23;101670.00;;;31.66;36.06
37852;BME280;23691;52.486;4.650;2022-07-24T12:37:48;101659.69;;;31.77;35.56
37852;BME280;23691;52.486;4.650;2022-07-24T12:40:25;101661.25;;;31.88;35.70
37852;BME280;23691;52.486;4.650;2022-07-24T12:43:22;101654.09;;;31.87;34.85
37852;BME280;23691;52.486;4.650;2022-07-24T12:46:04;101647.66;;;31.92;35.33
37852;BME280;23691;52.486;4.650;2022-07-24T12:48:30;101648.72;;;32.01;34.71
37852;BME280;23691;52.486;4.650;2022-07-24T12:51:07;101648.13;;;32.10;35.00
37852;BME280;23691;52.486;4.650;2022-07-24T12:53:36;101642.28;;;32.11;34.95
37852;BME280;23691;52.486;4.650;2022-07-24T12:56:06;101636.53;;;32.32;34.57
37852;BME280;23691;52.486;4.650;2022-07-24T12:58:51;101642.06;;;32.37;34.56
37852;BME280;23691;52.486;4.650;2022-07-24T13:01:17;101640.66;;;32.34;34.68
37852;BME280;23691;52.486;4.650;2022-07-24T13:03:43;101634.44;;;32.53;34.56
37852;BME280;23691;52.486;4.650;2022-07-24T13:06:15;101632.41;;;32.58;34.53
37852;BME280;23691;52.486;4.650;2022-07-24T13:08:40;101626.81;;;32.63;34.39
37852;BME280;23691;52.486;4.650;2022-07-24T13:11:06;101622.16;;;32.59;34.32
37852;BME280;23691;52.486;4.650;2022-07-24T13:13:31;101620.13;;;32.69;34.79
37852;BME280;23691;52.486;4.650;2022-07-24T13:15:57;101630.84;;;32.76;34.65
37852;BME280;23691;52.486;4.650;2022-07-24T13:18:22;101624.50;;;32.94;34.48
37852;BME280;23691;52.486;4.650;2022-07-24T13:20:48;101613.41;;;33.19;34.52
37852;BME280;23691;52.486;4.650;2022-07-24T13:23:13;101617.97;;;33.47;34.48